sensor_id;sensor_type;location;lat;lon;timestamp;temperature;humidity
71084;DHT22;58741;52.672;13.548;2022-07-29T00:00:46;15.60;70.00
71084;DHT22;58741;52.672;13.548;2022-07-29T00:03:12;15.60;70.50
71084;DHT22;58741;52.672;13.548;2022-07-29T00:05:39;15.50;70.40
71084;DHT22;58741;52.672;13.548;2022-07-29T00:08:05;15.50;70.10
71084;DHT22;58741;52.672;13.548;2022-07-29T00:10:31;15.50;70.30
71084;DHT22;58741;52.672;13.548;2022-07-29T00:12:57;15.50;71.40
71084;DHT22;58741;52.672;13.548;2022-07-29T00:15:22;15.40;70.70
71084;DHT22;58741;52.672;13.548;2022-07-29T00:17:48;15.40;71.80
71084;DHT22;58741;52.672;13.548;2022-07-29T00:20:13;15.40;71.60
71084;DHT22;58741;52.672;13.548;2022-07-29T00:22:39;15.30;71.40
71084;DHT22;58741;52.672;13.548;2022-07-29T00:25:05;15.30;72.20
71084;DHT22;58741;52.672;13.548;2022-07-29T00:27:31;15.30;71.60
71084;DHT22;58741;52.672;13.548;2022-07-29T00:29:56;15.30;71.90
71084;DHT22;58741;52.672;13.548;2022-07-29T00:32:22;15.30;72.30
71084;DHT22;58741;52.672;13.548;2022-07-29T00:34:47;15.20;72.10
71084;DHT22;58741;52.672;13.548;2022-07-29T00:37:31;15.20;72.20
71084;DHT22;58741;52.672;13.548;2022-07-29T00:39:57;15.20;72.80
71084;DHT22;58741;52.672;13.548;2022-07-29T00:42:22;15.20;71.90
71084;DHT22;58741;52.672;13.548;2022-07-29T00:44:48;15.20;72.70
71084;DHT22;58741;52.672;13.548;2022-07-29T00:47:14;15.20;72.50
71084;DHT22;58741;52.672;13.548;2022-07-29T00:49:40;15.10;72.80
71084;DHT22;58741;52.672;13.548;2022-07-29T00:52:06;15.10;73.40
71084;DHT22;58741;52.672;13.548;2022-07-29T00:54:33;15.10;73.30
71084;DHT22;58741;52.672;13.548;2022-07-29T00:57:00;15.00;72.70
71084;DHT22;58741;52.672;13.548;2022-07-29T00:59:26;15.00;73.50
71084;DHT22;58741;52.672;13.548;2022-07-29T01:01:52;15.00;73.70
71084;DHT22;58741;52.672;13.548;2022-07-29T01:04:18;15.00;73.70
71084;DHT22;58741;52.672;13.548;2022-07-29T01:06:44;14.90;73.70
71084;DHT22;58741;52.672;13.548;2022-07-29T01:09:10;14.90;73.20
71084;DHT22;58741;52.672;13.548;2022-07-29T01:11:36;14.90;74.00
71084;DHT22;58741;52.672;13.548;2022-07-29T01:14:02;14.90;74.60
71084;DHT22;58741;52.672;13.548;2022-07-29T01:16:32;14.90;74.10
71084;DHT22;58741;52.672;13.548;2022-07-29T01:19:07;14.80;73.30
71084;DHT22;58741;52.672;13.548;2022-07-29T01:21:57;14.80;74.80
71084;DHT22;58741;52.672;13.548;2022-07-29T01:24:52;14.80;73.80
71084;DHT22;58741;52.672;13.548;2022-07-29T01:27:38;14.80;73.30
71084;DHT22;58741;52.672;13.548;2022-07-29T01:30:06;14.70;74.00
71084;DHT22;58741;52.672;13.548;2022-07-29T01:32:35;14.70;74.70
71084;DHT22;58741;52.672;13.548;2022-07-29T01:35:06;14.70;74.00
71084;DHT22;58741;52.672;13.548;2022-07-29T01:37:48;14.70;74.70
71084;DHT22;58741;52.672;13.548;2022-07-29T01:40:29;14.70;74.30
71084;DHT22;58741;52.672;13.548;2022-07-29T01:42:57;14.60;74.70
71084;DHT22;58741;52.672;13.548;2022-07-29T01:45:38;14.60;74.70
71084;DHT22;58741;52.672;13.548;2022-07-29T01:50:48;14.60;74.90
71084;DHT22;58741;52.672;13.548;2022-07-29T01:53:21;14.60;75.40
71084;DHT22;58741;52.672;13.548;2022-07-29T01:55:48;14.50;75.20
71084;DHT22;58741;52.672;13.548;2022-07-29T01:58:17;14.50;76.70
71084;DHT22;58741;52.672;13.548;2022-07-29T02:00:45;14.50;75.50
71084;DHT22;58741;52.672;13.548;2022-07-29T02:03:11;14.50;75.80
71084;DHT22;58741;52.672;13.548;2022-07-29T02:05:40;14.40;75.50
71084;DHT22;58741;52.672;13.548;2022-07-29T02:08:06;14.40;76.20
71084;DHT22;58741;52.672;13.548;2022-07-29T02:10:33;14.40;76.20
71084;DHT22;58741;52.672;13.548;2022-07-29T02:13:00;14.40;76.30
71084;DHT22;58741;52.672;13.548;2022-07-29T02:15:29;14.30;77.30
71084;DHT22;58741;52.672;13.548;2022-07-29T02:17:59;14.30;76.60
71084;DHT22;58741;52.672;13.548;2022-07-29T02:20:27;14.30;76.90
71084;DHT22;58741;52.672;13.548;2022-07-29T02:22:54;14.30;77.40
71084;DHT22;58741;52.672;13.548;2022-07-29T02:25:22;14.30;77.20
71084;DHT22;58741;52.672;13.548;2022-07-29T02:27:50;14.20;77.60
71084;DHT22;58741;52.672;13.548;2022-07-29T02:30:17;14.20;77.40
71084;DHT22;58741;52.672;13.548;2022-07-29T02:32:43;14.20;77.20
71084;DHT22;58741;52.672;13.548;2022-07-29T02:35:13;14.20;77.60
71084;DHT22;58741;52.672;13.548;2022-07-29T02:37:39;14.20;77.50
71084;DHT22;58741;52.672;13.548;2022-07-29T02:40:09;14.20;77.40
71084;DHT22;58741;52.672;13.548;2022-07-29T02:42:37;14.10;77.20
71084;DHT22;58741;52.672;13.548;2022-07-29T02:45:05;14.10;77.80
71084;DHT22;58741;52.672;13.548;2022-07-29T02:47:36;14.10;77.70
71084;DHT22;58741;52.672;13.548;2022-07-29T02:50:17;14.00;77.40
71084;DHT22;58741;52.672;13.548;2022-07-29T02:52:51;14.00;77.60
71084;DHT22;58741;52.672;13.548;2022-07-29T02:55:34;14.10;78.10
71084;DHT22;58741;52.672;13.548;2022-07-29T02:58:30;14.00;77.70
71084;DHT22;58741;52.672;13.548;2022-07-29T03:00:58;14.00;77.70
71084;DHT22;58741;52.672;13.548;2022-07-29T03:03:25;14.00;77.90
71084;DHT22;58741;52.672;13.548;2022-07-29T03:05:56;14.00;78.00
71084;DHT22;58741;52.672;13.548;2022-07-29T03:08:23;14.00;78.00
71084;DHT22;58741;52.672;13.548;2022-07-29T03:10:49;14.00;78.20
71084;DHT22;58741;52.672;13.548;2022-07-29T03:13:15;14.00;79.10
71084;DHT22;58741;52.672;13.548;2022-07-29T03:15:43;13.90;78.10
71084;DHT22;58741;52.672;13.548;2022-07-29T03:18:09;13.90;78.40
71084;DHT22;58741;52.672;13.548;2022-07-29T03:20:35;14.00;78.40
71084;DHT22;58741;52.672;13.548;2022-07-29T03:23:02;14.00;79.20
71084;DHT22;58741;52.672;13.548;2022-07-29T03:25:27;13.90;78.80
71084;DHT22;58741;52.672;13.548;2022-07-29T03:27:52;13.90;78.70
71084;DHT22;58741;52.672;13.548;2022-07-29T03:30:18;13.90;79.10
71084;DHT22;58741;52.672;13.548;2022-07-29T03:32:43;13.90;79.60
71084;DHT22;58741;52.672;13.548;2022-07-29T03:35:09;13.90;78.80
71084;DHT22;58741;52.672;13.548;2022-07-29T03:37:35;13.90;79.30
71084;DHT22;58741;52.672;13.548;2022-07-29T03:40:03;13.90;79.50
71084;DHT22;58741;52.672;13.548;2022-07-29T03:42:35;13.90;78.90
71084;DHT22;58741;52.672;13.548;2022-07-29T03:45:05;13.90;79.30
71084;DHT22;58741;52.672;13.548;2022-07-29T03:47:33;13.90;78.80
71084;DHT22;58741;52.672;13.548;2022-07-29T03:50:05;13.90;79.50
71084;DHT22;58741;52.672;13.548;2022-07-29T03:52:31;13.90;80.40
71084;DHT22;58741;52.672;13.548;2022-07-29T03:54:56;14.00;80.10
71084;DHT22;58741;52.672;13.548;2022-07-29T03:57:25;14.00;79.30
71084;DHT22;58741;52.672;13.548;2022-07-29T03:59:53;13.90;79.10
71084;DHT22;58741;52.672;13.548;2022-07-29T04:02:19;13.90;79.60
71084;DHT22;58741;52.672;13.548;2022-07-29T04:04:45;13.90;79.10
71084;DHT22;58741;52.672;13.548;2022-07-29T04:07:12;13.90;79.70
71084;DHT22;58741;52.672;13.548;2022-07-29T04:09:38;13.90;80.00
71084;DHT22;58741;52.672;13.548;2022-07-29T04:12:04;13.90;79.30
71084;DHT22;58741;52.672;13.548;2022-07-29T04:14:31;13.90;80.30
71084;DHT22;58741;52.672;13.548;2022-07-29T04:16:57;13.90;79.60
71084;DHT22;58741;52.672;13.548;2022-07-29T04:19:22;14.00;80.20
71084;DHT22;58741;52.672;13.548;2022-07-29T04:21:48;14.00;79.90
71084;DHT22;58741;52.672;13.548;2022-07-29T04:24:13;13.90;80.00
71084;DHT22;58741;52.672;13.548;2022-07-29T04:26:39;13.90;79.40
71084;DHT22;58741;52.672;13.548;2022-07-29T04:29:04;14.00;80.00
71084;DHT22;58741;52.672;13.548;2022-07-29T04:31:30;14.00;79.80
71084;DHT22;58741;52.672;13.548;2022-07-29T04:33:55;14.00;80.80
71084;DHT22;58741;52.672;13.548;2022-07-29T04:36:21;14.00;80.30
71084;DHT22;58741;52.672;13.548;2022-07-29T04:38:46;14.00;80.00
71084;DHT22;58741;52.672;13.548;2022-07-29T04:41:12;14.00;80.50
71084;DHT22;58741;52.672;13.548;2022-07-29T04:43:37;14.00;80.30
71084;DHT22;58741;52.672;13.548;2022-07-29T04:46:03;14.00;80.10
71084;DHT22;58741;52.672;13.548;2022-07-29T04:48:31;14.10;80.10
71084;DHT22;58741;52.672;13.548;2022-07-29T04:50:56;14.00;80.30
71084;DHT22;58741;52.672;13.548;2022-07-29T04:53:22;14.10;80.60
71084;DHT22;58741;52.672;13.548;2022-07-29T04:55:47;14.10;80.00
71084;DHT22;58741;52.672;13.548;2022-07-29T04:58:13;14.10;79.90
71084;DHT22;58741;52.672;13.548;2022-07-29T05:00:39;14.10;80.00
71084;DHT22;58741;52.672;13.548;2022-07-29T05:03:05;14.20;80.00
71084;DHT22;58741;52.672;13.548;2022-07-29T05:07:58;14.20;79.50
71084;DHT22;58741;52.672;13.548;2022-07-29T05:10:24;14.20;79.30
71084;DHT22;58741;52.672;13.548;2022-07-29T05:12:50;14.30;79.60
71084;DHT22;58741;52.672;13.548;2022-07-29T05:15:15;14.30;80.90
71084;DHT22;58741;52.672;13.548;2022-07-29T05:17:43;14.30;79.90
71084;DHT22;58741;52.672;13.548;2022-07-29T05:20:08;14.30;79.90
71084;DHT22;58741;52.672;13.548;2022-07-29T05:22:34;14.30;79.90
71084;DHT22;58741;52.672;13.548;2022-07-29T05:24:59;14.40;79.60
71084;DHT22;58741;52.672;13.548;2022-07-29T05:27:25;14.40;79.70
71084;DHT22;58741;52.672;13.548;2022-07-29T05:29:50;14.40;80.00
71084;DHT22;58741;52.672;13.548;2022-07-29T05:32:16;14.50;80.10
71084;DHT22;58741;52.672;13.548;2022-07-29T05:34:42;14.50;80.00
71084;DHT22;58741;52.672;13.548;2022-07-29T05:37:07;14.50;79.90
71084;DHT22;58741;52.672;13.548;2022-07-29T05:39:33;14.60;80.30
71084;DHT22;58741;52.672;13.548;2022-07-29T05:41:58;14.70;80.40
71084;DHT22;58741;52.672;13.548;2022-07-29T05:44:24;14.90;80.70
71084;DHT22;58741;52.672;13.548;2022-07-29T05:46:49;15.00;80.30
71084;DHT22;58741;52.672;13.548;2022-07-29T05:49:15;15.20;79.30
71084;DHT22;58741;52.672;13.548;2022-07-29T05:51:41;15.30;79.00
71084;DHT22;58741;52.672;13.548;2022-07-29T05:54:06;15.40;78.70
71084;DHT22;58741;52.672;13.548;2022-07-29T05:56:32;15.50;77.70
71084;DHT22;58741;52.672;13.548;2022-07-29T05:58:57;15.60;77.90
71084;DHT22;58741;52.672;13.548;2022-07-29T06:01:23;15.70;77.80
71084;DHT22;58741;52.672;13.548;2022-07-29T06:03:49;15.70;76.80
71084;DHT22;58741;52.672;13.548;2022-07-29T06:06:14;15.70;77.10
71084;DHT22;58741;52.672;13.548;2022-07-29T06:08:40;15.80;76.90
71084;DHT22;58741;52.672;13.548;2022-07-29T06:11:06;15.80;76.60
71084;DHT22;58741;52.672;13.548;2022-07-29T06:13:32;15.80;76.50
71084;DHT22;58741;52.672;13.548;2022-07-29T06:15:57;15.90;77.00
71084;DHT22;58741;52.672;13.548;2022-07-29T06:18:23;15.90;77.10
71084;DHT22;58741;52.672;13.548;2022-07-29T06:20:53;16.00;76.80
71084;DHT22;58741;52.672;13.548;2022-07-29T06:23:19;16.00;76.90
71084;DHT22;58741;52.672;13.548;2022-07-29T06:25:45;16.10;76.50
71084;DHT22;58741;52.672;13.548;2022-07-29T06:28:11;16.10;76.00
71084;DHT22;58741;52.672;13.548;2022-07-29T06:30:38;16.20;76.30
71084;DHT22;58741;52.672;13.548;2022-07-29T06:33:04;16.30;76.20
71084;DHT22;58741;52.672;13.548;2022-07-29T06:35:29;16.40;76.50
71084;DHT22;58741;52.672;13.548;2022-07-29T06:37:55;16.50;76.00
71084;DHT22;58741;52.672;13.548;2022-07-29T06:40:21;16.60;75.50
71084;DHT22;58741;52.672;13.548;2022-07-29T06:43:05;16.70;75.00
71084;DHT22;58741;52.672;13.548;2022-07-29T06:45:34;16.80;74.80
71084;DHT22;58741;52.672;13.548;2022-07-29T06:47:59;16.80;75.20
71084;DHT22;58741;52.672;13.548;2022-07-29T06:50:25;16.90;75.10
71084;DHT22;58741;52.672;13.548;2022-07-29T06:52:50;17.10;75.00
71084;DHT22;58741;52.672;13.548;2022-07-29T06:55:16;17.10;74.10
71084;DHT22;58741;52.672;13.548;2022-07-29T06:57:41;17.20;74.00
71084;DHT22;58741;52.672;13.548;2022-07-29T07:00:07;17.30;73.80
71084;DHT22;58741;52.672;13.548;2022-07-29T07:02:33;17.40;73.10
71084;DHT22;58741;52.672;13.548;2022-07-29T07:04:58;17.50;72.80
71084;DHT22;58741;52.672;13.548;2022-07-29T07:07:24;17.50;72.70
71084;DHT22;58741;52.672;13.548;2022-07-29T07:09:50;17.70;72.70
71084;DHT22;58741;52.672;13.548;2022-07-29T07:12:15;17.70;71.40
71084;DHT22;58741;52.672;13.548;2022-07-29T07:14:41;17.80;71.60
71084;DHT22;58741;52.672;13.548;2022-07-29T07:17:07;17.80;72.20
71084;DHT22;58741;52.672;13.548;2022-07-29T07:19:33;17.90;72.50
71084;DHT22;58741;52.672;13.548;2022-07-29T07:21:59;17.90;71.40
71084;DHT22;58741;52.672;13.548;2022-07-29T07:24:24;18.00;71.60
71084;DHT22;58741;52.672;13.548;2022-07-29T07:26:50;18.10;71.40
71084;DHT22;58741;52.672;13.548;2022-07-29T07:29:16;18.20;71.10
71084;DHT22;58741;52.672;13.548;2022-07-29T07:31:41;18.30;72.70
71084;DHT22;58741;52.672;13.548;2022-07-29T07:34:07;18.40;72.90
71084;DHT22;58741;52.672;13.548;2022-07-29T07:36:33;18.60;72.60
71084;DHT22;58741;52.672;13.548;2022-07-29T07:38:58;18.80;73.10
71084;DHT22;58741;52.672;13.548;2022-07-29T07:41:24;19.10;72.10
71084;DHT22;58741;52.672;13.548;2022-07-29T07:43:49;19.40;70.40
71084;DHT22;58741;52.672;13.548;2022-07-29T07:46:15;19.70;69.80
71084;DHT22;58741;52.672;13.548;2022-07-29T07:48:40;19.90;67.30
71084;DHT22;58741;52.672;13.548;2022-07-29T07:51:06;20.10;66.60
71084;DHT22;58741;52.672;13.548;2022-07-29T07:53:32;20.20;65.40
71084;DHT22;58741;52.672;13.548;2022-07-29T07:55:58;20.30;65.20
71084;DHT22;58741;52.672;13.548;2022-07-29T07:58:24;20.40;64.40
71084;DHT22;58741;52.672;13.548;2022-07-29T08:00:49;20.50;64.10
71084;DHT22;58741;52.672;13.548;2022-07-29T08:03:15;20.70;65.30
71084;DHT22;58741;52.672;13.548;2022-07-29T08:05:40;20.90;63.40
71084;DHT22;58741;52.672;13.548;2022-07-29T08:08:06;21.20;63.50
71084;DHT22;58741;52.672;13.548;2022-07-29T08:10:32;21.40;63.30
71084;DHT22;58741;52.672;13.548;2022-07-29T08:13:16;21.70;63.10
71084;DHT22;58741;52.672;13.548;2022-07-29T08:15:42;21.90;61.10
71084;DHT22;58741;52.672;13.548;2022-07-29T08:18:10;22.20;59.10
71084;DHT22;58741;52.672;13.548;2022-07-29T08:20:36;22.40;60.00
71084;DHT22;58741;52.672;13.548;2022-07-29T08:23:03;22.70;57.30
71084;DHT22;58741;52.672;13.548;2022-07-29T08:25:29;22.90;56.90
71084;DHT22;58741;52.672;13.548;2022-07-29T08:27:55;23.10;55.80
71084;DHT22;58741;52.672;13.548;2022-07-29T08:30:21;23.30;56.00
71084;DHT22;58741;52.672;13.548;2022-07-29T08:32:48;23.60;56.40
71084;DHT22;58741;52.672;13.548;2022-07-29T08:35:13;23.70;56.60
71084;DHT22;58741;52.672;13.548;2022-07-29T08:37:39;24.00;53.90
71084;DHT22;58741;52.672;13.548;2022-07-29T08:40:05;24.20;50.70
71084;DHT22;58741;52.672;13.548;2022-07-29T08:42:31;24.30;49.90
71084;DHT22;58741;52.672;13.548;2022-07-29T08:44:57;24.50;51.90
71084;DHT22;58741;52.672;13.548;2022-07-29T08:47:23;24.60;50.90
71084;DHT22;58741;52.672;13.548;2022-07-29T08:49:51;24.70;50.90
71084;DHT22;58741;52.672;13.548;2022-07-29T08:52:17;24.80;49.10
71084;DHT22;58741;52.672;13.548;2022-07-29T08:54:44;25.00;47.40
71084;DHT22;58741;52.672;13.548;2022-07-29T08:57:12;25.00;47.60
71084;DHT22;58741;52.672;13.548;2022-07-29T08:59:40;25.20;47.90
71084;DHT22;58741;52.672;13.548;2022-07-29T09:02:12;25.20;45.10
71084;DHT22;58741;52.672;13.548;2022-07-29T09:04:41;25.30;45.60
71084;DHT22;58741;52.672;13.548;2022-07-29T09:07:07;25.30;45.50
71084;DHT22;58741;52.672;13.548;2022-07-29T09:09:33;25.40;45.80
71084;DHT22;58741;52.672;13.548;2022-07-29T09:11:59;25.50;46.90
71084;DHT22;58741;52.672;13.548;2022-07-29T09:14:25;25.60;46.00
71084;DHT22;58741;52.672;13.548;2022-07-29T09:16:53;25.70;45.00
71084;DHT22;58741;52.672;13.548;2022-07-29T09:19:27;25.80;45.20
71084;DHT22;58741;52.672;13.548;2022-07-29T09:21:53;25.90;44.00
71084;DHT22;58741;52.672;13.548;2022-07-29T09:27:00;25.90;43.20
71084;DHT22;58741;52.672;13.548;2022-07-29T09:29:26;25.90;41.90
71084;DHT22;58741;52.672;13.548;2022-07-29T09:31:54;25.90;40.70
71084;DHT22;58741;52.672;13.548;2022-07-29T09:34:25;25.90;38.50
71084;DHT22;58741;52.672;13.548;2022-07-29T09:36:52;25.90;42.80
71084;DHT22;58741;52.672;13.548;2022-07-29T09:39:37;26.00;41.00
71084;DHT22;58741;52.672;13.548;2022-07-29T09:42:06;26.20;42.30
71084;DHT22;58741;52.672;13.548;2022-07-29T09:44:48;26.40;40.70
71084;DHT22;58741;52.672;13.548;2022-07-29T09:47:16;26.60;39.90
71084;DHT22;58741;52.672;13.548;2022-07-29T09:49:56;26.70;40.00
71084;DHT22;58741;52.672;13.548;2022-07-29T09:52:26;26.80;39.00
71084;DHT22;58741;52.672;13.548;2022-07-29T09:54:52;26.80;37.30
71084;DHT22;58741;52.672;13.548;2022-07-29T10:00:03;26.80;39.60
71084;DHT22;58741;52.672;13.548;2022-07-29T10:02:33;26.70;40.20
71084;DHT22;58741;52.672;13.548;2022-07-29T10:05:00;26.70;39.70
71084;DHT22;58741;52.672;13.548;2022-07-29T10:07:28;26.70;39.40
71084;DHT22;58741;52.672;13.548;2022-07-29T10:10:08;26.60;38.00
71084;DHT22;58741;52.672;13.548;2022-07-29T10:12:33;26.50;38.90
71084;DHT22;58741;52.672;13.548;2022-07-29T10:15:01;26.50;37.10
71084;DHT22;58741;52.672;13.548;2022-07-29T10:17:28;26.50;38.90
71084;DHT22;58741;52.672;13.548;2022-07-29T10:19:54;26.50;38.00
71084;DHT22;58741;52.672;13.548;2022-07-29T10:22:20;26.40;40.10
71084;DHT22;58741;52.672;13.548;2022-07-29T10:24:46;26.40;39.30
71084;DHT22;58741;52.672;13.548;2022-07-29T10:27:11;26.30;38.90
71084;DHT22;58741;52.672;13.548;2022-07-29T10:29:37;26.30;39.40
71084;DHT22;58741;52.672;13.548;2022-07-29T10:32:31;26.30;38.50
71084;DHT22;58741;52.672;13.548;2022-07-29T10:40:54;26.70;39.40
71084;DHT22;58741;52.672;13.548;2022-07-29T10:43:43;26.80;39.10
71084;DHT22;58741;52.672;13.548;2022-07-29T10:46:10;27.00;37.30
71084;DHT22;58741;52.672;13.548;2022-07-29T10:49:06;27.10;37.00
71084;DHT22;58741;52.672;13.548;2022-07-29T10:52:01;27.20;37.20
71084;DHT22;58741;52.672;13.548;2022-07-29T10:57:12;27.10;37.80
71084;DHT22;58741;52.672;13.548;2022-07-29T10:59:39;27.10;36.20
71084;DHT22;58741;52.672;13.548;2022-07-29T11:05:02;27.30;37.60
71084;DHT22;58741;52.672;13.548;2022-07-29T11:07:29;27.40;36.90
71084;DHT22;58741;52.672;13.548;2022-07-29T11:15:05;27.40;36.70
71084;DHT22;58741;52.672;13.548;2022-07-29T11:23:32;27.50;38.20
71084;DHT22;58741;52.672;13.548;2022-07-29T11:26:17;27.50;37.00
71084;DHT22;58741;52.672;13.548;2022-07-29T11:28:57;27.60;35.50
71084;DHT22;58741;52.672;13.548;2022-07-29T11:34:25;27.50;37.30
71084;DHT22;58741;52.672;13.548;2022-07-29T11:39:36;27.50;37.20
71084;DHT22;58741;52.672;13.548;2022-07-29T11:44:56;27.60;37.20
71084;DHT22;58741;52.672;13.548;2022-07-29T11:47:22;27.60;37.50
71084;DHT22;58741;52.672;13.548;2022-07-29T11:49:49;27.60;37.30
71084;DHT22;58741;52.672;13.548;2022-07-29T11:52:17;27.70;38.10
71084;DHT22;58741;52.672;13.548;2022-07-29T11:54:43;27.80;38.20
71084;DHT22;58741;52.672;13.548;2022-07-29T11:57:09;27.90;37.00
71084;DHT22;58741;52.672;13.548;2022-07-29T11:59:42;28.00;38.10
71084;DHT22;58741;52.672;13.548;2022-07-29T12:02:08;28.10;37.20
71084;DHT22;58741;52.672;13.548;2022-07-29T12:04:48;28.20;37.60
71084;DHT22;58741;52.672;13.548;2022-07-29T12:07:15;28.30;38.80
71084;DHT22;58741;52.672;13.548;2022-07-29T12:09:49;28.40;38.30
71084;DHT22;58741;52.672;13.548;2022-07-29T12:12:16;28.50;38.00
71084;DHT22;58741;52.672;13.548;2022-07-29T12:14:42;28.60;36.40
71084;DHT22;58741;52.672;13.548;2022-07-29T12:17:25;28.70;38.20
71084;DHT22;58741;52.672;13.548;2022-07-29T12:19:52;28.90;37.80
71084;DHT22;58741;52.672;13.548;2022-07-29T12:22:35;29.00;37.10
71084;DHT22;58741;52.672;13.548;2022-07-29T12:25:10;29.10;37.40
71084;DHT22;58741;52.672;13.548;2022-07-29T12:27:37;29.20;36.70
71084;DHT22;58741;52.672;13.548;2022-07-29T12:30:09;29.20;36.80
71084;DHT22;58741;52.672;13.548;2022-07-29T12:32:37;29.20;36.00
71084;DHT22;58741;52.672;13.548;2022-07-29T12:35:14;29.30;37.00
71084;DHT22;58741;52.672;13.548;2022-07-29T12:37:42;29.30;37.40
71084;DHT22;58741;52.672;13.548;2022-07-29T12:40:10;29.40;36.50
71084;DHT22;58741;52.672;13.548;2022-07-29T12:42:36;29.50;35.20
71084;DHT22;58741;52.672;13.548;2022-07-29T12:45:03;29.40;35.80
71084;DHT22;58741;52.672;13.548;2022-07-29T12:47:28;29.50;37.60
71084;DHT22;58741;52.672;13.548;2022-07-29T12:50:09;29.50;37.60
71084;DHT22;58741;52.672;13.548;2022-07-29T12:52:35;29.60;37.90
71084;DHT22;58741;52.672;13.548;2022-07-29T12:55:00;29.70;38.20
71084;DHT22;58741;52.672;13.548;2022-07-29T12:57:27;29.70;39.50
71084;DHT22;58741;52.672;13.548;2022-07-29T13:00:24;29.90;38.80
71084;DHT22;58741;52.672;13.548;2022-07-29T13:02:57;29.90;38.40
71084;DHT22;58741;52.672;13.548;2022-07-29T13:05:23;29.90;37.20
71084;DHT22;58741;52.672;13.548;2022-07-29T13:07:50;29.90;36.80
71084;DHT22;58741;52.672;13.548;2022-07-29T13:10:17;29.90;37.00
71084;DHT22;58741;52.672;13.548;2022-07-29T13:13:09;29.90;37.30
71084;DHT22;58741;52.672;13.548;2022-07-29T13:15:41;29.90;37.60
71084;DHT22;58741;52.672;13.548;2022-07-29T13:18:30;29.80;35.90
71084;DHT22;58741;52.672;13.548;2022-07-29T13:20:56;29.70;37.90
71084;DHT22;58741;52.672;13.548;2022-07-29T13:23:22;29.60;37.50
71084;DHT22;58741;52.672;13.548;2022-07-29T13:25:48;29.60;37.40
71084;DHT22;58741;52.672;13.548;2022-07-29T13:28:13;29.60;36.20
71084;DHT22;58741;52.672;13.548;2022-07-29T13:30:41;29.60;38.90
71084;DHT22;58741;52.672;13.548;2022-07-29T13:33:07;29.70;38.30
71084;DHT22;58741;52.672;13.548;2022-07-29T13:35:33;29.70;38.50
71084;DHT22;58741;52.672;13.548;2022-07-29T13:37:59;29.80;38.70
71084;DHT22;58741;52.672;13.548;2022-07-29T13:40:24;29.80;37.30
71084;DHT22;58741;52.672;13.548;2022-07-29T13:42:50;29.80;37.00
71084;DHT22;58741;52.672;13.548;2022-07-29T13:45:16;29.70;36.90
71084;DHT22;58741;52.672;13.548;2022-07-29T13:47:41;29.70;38.20
71084;DHT22;58741;52.672;13.548;2022-07-29T13:53:29;29.80;37.70
71084;DHT22;58741;52.672;13.548;2022-07-29T13:55:55;29.80;37.20
71084;DHT22;58741;52.672;13.548;2022-07-29T13:58:20;29.70;37.40
71084;DHT22;58741;52.672;13.548;2022-07-29T14:00:46;29.70;37.60
71084;DHT22;58741;52.672;13.548;2022-07-29T14:03:12;29.70;38.60
71084;DHT22;58741;52.672;13.548;2022-07-29T14:05:37;29.70;37.30
71084;DHT22;58741;52.672;13.548;2022-07-29T14:08:03;29.70;38.70
71084;DHT22;58741;52.672;13.548;2022-07-29T14:10:29;29.60;38.20
71084;DHT22;58741;52.672;13.548;2022-07-29T14:12:54;29.60;39.20
71084;DHT22;58741;52.672;13.548;2022-07-29T14:15:20;29.60;38.10
71084;DHT22;58741;52.672;13.548;2022-07-29T14:17:45;29.60;39.00
71084;DHT22;58741;52.672;13.548;2022-07-29T14:20:11;29.70;38.70
71084;DHT22;58741;52.672;13.548;2022-07-29T14:22:37;29.70;36.90
71084;DHT22;58741;52.672;13.548;2022-07-29T14:25:03;29.70;35.30
71084;DHT22;58741;52.672;13.548;2022-07-29T14:27:29;29.60;38.30
71084;DHT22;58741;52.672;13.548;2022-07-29T14:29:54;29.60;37.50
71084;DHT22;58741;52.672;13.548;2022-07-29T14:32:20;29.70;36.30
71084;DHT22;58741;52.672;13.548;2022-07-29T14:34:45;29.70;37.90
71084;DHT22;58741;52.672;13.548;2022-07-29T14:37:11;29.70;36.70
71084;DHT22;58741;52.672;13.548;2022-07-29T14:39:36;29.70;36.70
71084;DHT22;58741;52.672;13.548;2022-07-29T14:42:02;29.70;35.40
71084;DHT22;58741;52.672;13.548;2022-07-29T14:44:28;29.50;37.60
71084;DHT22;58741;52.672;13.548;2022-07-29T14:46:59;29.50;38.20
71084;DHT22;58741;52.672;13.548;2022-07-29T14:49:26;29.50;37.90
71084;DHT22;58741;52.672;13.548;2022-07-29T14:51:51;29.60;37.50
71084;DHT22;58741;52.672;13.548;2022-07-29T14:54:17;29.60;37.80
71084;DHT22;58741;52.672;13.548;2022-07-29T14:56:43;29.70;37.50
71084;DHT22;58741;52.672;13.548;2022-07-29T14:59:08;29.70;37.40
71084;DHT22;58741;52.672;13.548;2022-07-29T15:01:34;29.70;36.80
71084;DHT22;58741;52.672;13.548;2022-07-29T15:03:59;29.70;37.40
71084;DHT22;58741;52.672;13.548;2022-07-29T15:06:25;29.60;36.50
71084;DHT22;58741;52.672;13.548;2022-07-29T15:08:51;29.50;36.10
71084;DHT22;58741;52.672;13.548;2022-07-29T15:11:17;29.30;37.00
71084;DHT22;58741;52.672;13.548;2022-07-29T15:13:42;29.20;38.00
71084;DHT22;58741;52.672;13.548;2022-07-29T15:16:08;29.00;39.70
71084;DHT22;58741;52.672;13.548;2022-07-29T15:18:34;29.00;38.70
71084;DHT22;58741;52.672;13.548;2022-07-29T15:21:00;29.00;37.40
71084;DHT22;58741;52.672;13.548;2022-07-29T15:23:27;29.00;38.00
71084;DHT22;58741;52.672;13.548;2022-07-29T15:25:52;29.00;39.20
71084;DHT22;58741;52.672;13.548;2022-07-29T15:28:18;29.00;37.90
71084;DHT22;58741;52.672;13.548;2022-07-29T15:30:43;29.10;36.90
71084;DHT22;58741;52.672;13.548;2022-07-29T15:33:09;29.10;37.50
71084;DHT22;58741;52.672;13.548;2022-07-29T15:35:36;29.20;37.00
71084;DHT22;58741;52.672;13.548;2022-07-29T15:38:01;29.20;36.80
71084;DHT22;58741;52.672;13.548;2022-07-29T15:40:27;29.20;37.30
71084;DHT22;58741;52.672;13.548;2022-07-29T15:42:53;29.30;36.70
71084;DHT22;58741;52.672;13.548;2022-07-29T15:45:18;29.30;37.60
71084;DHT22;58741;52.672;13.548;2022-07-29T15:47:44;29.30;36.30
71084;DHT22;58741;52.672;13.548;2022-07-29T15:50:09;29.40;38.30
71084;DHT22;58741;52.672;13.548;2022-07-29T15:52:40;29.30;37.00
71084;DHT22;58741;52.672;13.548;2022-07-29T15:55:06;29.30;35.90
71084;DHT22;58741;52.672;13.548;2022-07-29T15:57:32;29.30;35.40
71084;DHT22;58741;52.672;13.548;2022-07-29T15:59:58;29.20;35.60
71084;DHT22;58741;52.672;13.548;2022-07-29T16:02:23;29.10;35.00
71084;DHT22;58741;52.672;13.548;2022-07-29T16:04:49;29.00;35.50